Time;durP1;ratioP1;P1;durP2;ratioP2;P2;SDS_P1;SDS_P2;PMS_P1;PMS_P2;Temp;Humidity;BMP_temperature;BMP_pressure;BME280_temperature;BME280_humidity;BME280_pressure;Samples;Min_cycle;Max_cycle;Signal;HPM_P1;HPM_P2
2022/01/30 00:01:50;;;;;;;24.58;3.47;;;7.00;99.90;;;;;;5055914;28;20087;-65
2022/01/30 00:04:16;;;;;;;21.83;4.38;;;7.00;99.90;;;;;;5055708;28;20558;-65
2022/01/30 00:06:41;;;;;;;18.95;3.80;;;7.00;99.90;;;;;;5055412;28;20044;-65
2022/01/30 00:09:13;;;;;;;17.85;4.22;;;6.90;99.90;;;;;;5055470;28;20401;-65
2022/01/30 00:11:41;;;;;;;21.42;3.72;;;6.90;99.90;;;;;;5055358;28;20684;-66
2022/01/30 00:14:12;;;;;;;20.70;3.28;;;6.90;99.90;;;;;;5055218;28;20041;-65
2022/01/30 00:16:38;;;;;;;25.73;3.50;;;6.80;99.90;;;;;;5055114;28;20041;-65
2022/01/30 00:19:17;;;;;;;26.63;3.72;;;6.90;99.90;;;;;;5055322;28;20048;-65
2022/01/30 00:21:50;;;;;;;23.40;4.30;;;6.90;99.90;;;;;;5020490;28;20120;-65
2022/01/30 00:24:33;;;;;;;26.88;4.72;;;6.80;99.90;;;;;;5055049;28;20434;-65
2022/01/30 00:26:59;;;;;;;24.10;5.47;;;6.90;99.90;;;;;;5037243;28;20036;-65
2022/01/30 00:29:24;;;;;;;19.50;3.13;;;6.90;99.90;;;;;;5055351;28;20033;-65
2022/01/30 00:31:50;;;;;;;17.05;3.38;;;7.00;99.90;;;;;;5055062;28;20508;-65
2022/01/30 00:34:16;;;;;;;15.15;3.20;;;6.90;99.90;;;;;;5055122;28;20105;-65
2022/01/30 00:36:41;;;;;;;30.02;4.28;;;6.90;99.90;;;;;;5036866;28;20044;-65
2022/01/30 00:39:07;;;;;;;21.33;3.90;;;6.90;99.90;;;;;;5037257;28;20111;-66
2022/01/30 00:41:32;;;;;;;25.63;4.50;;;6.90;99.90;;;;;;5054539;28;20052;-65
2022/01/30 00:43:58;;;;;;;24.98;4.28;;;6.90;99.90;;;;;;5036989;28;20040;-66
2022/01/30 00:46:23;;;;;;;23.73;4.22;;;6.90;99.90;;;;;;5054643;28;20032;-65
2022/01/30 00:48:49;;;;;;;20.45;3.40;;;6.90;99.90;;;;;;5054749;28;20469;-65
2022/01/30 00:51:16;;;;;;;18.90;3.17;;;6.80;99.90;;;;;;5054595;28;20478;-65
2022/01/30 00:53:42;;;;;;;22.48;5.50;;;6.90;99.90;;;;;;5036810;28;20037;-65
2022/01/30 00:56:08;;;;;;;31.42;6.90;;;6.80;99.90;;;;;;5054336;28;20041;-65
2022/01/30 00:58:34;;;;;;;21.63;5.15;;;6.80;99.90;;;;;;5054684;28;20047;-65
2022/01/30 01:00:59;;;;;;;19.40;4.97;;;6.80;99.90;;;;;;5040516;28;20044;-65
2022/01/30 01:03:25;;;;;;;19.70;4.35;;;6.80;99.90;;;;;;5044750;28;20040;-65
2022/01/30 01:05:51;;;;;;;18.35;3.30;;;6.80;99.90;;;;;;5055588;28;20497;-66
2022/01/30 01:08:31;;;;;;;18.13;3.30;;;6.80;99.90;;;;;;5054324;28;20110;-65
2022/01/30 01:13:58;;;;;;;17.40;3.70;;;6.80;99.90;;;;;;5036000;28;20114;-65
2022/01/30 01:24:08;;;;;;;13.43;3.03;;;6.50;99.90;;;;;;5036156;28;20076;-64
2022/01/30 01:26:35;;;;;;;16.25;3.88;;;6.60;99.90;;;;;;5054023;28;20043;-63
2022/01/30 01:29:02;;;;;;;22.00;3.90;;;6.50;99.90;;;;;;5035979;28;20127;-63
2022/01/30 01:31:28;;;;;;;19.60;3.88;;;6.50;99.90;;;;;;5053905;28;20041;-64
2022/01/30 01:34:13;;;;;;;22.02;3.58;;;6.40;99.90;;;;;;5053672;28;20048;-64
2022/01/30 01:36:38;;;;;;;19.33;4.22;;;6.40;99.90;;;;;;5053838;28;20564;-64
2022/01/30 01:39:05;;;;;;;17.80;4.43;;;6.40;99.90;;;;;;5053255;28;20079;-64
2022/01/30 01:41:32;;;;;;;25.88;4.35;;;6.40;99.90;;;;;;5035917;28;20124;-65
2022/01/30 01:43:58;;;;;;;35.00;6.38;;;6.40;99.90;;;;;;5053223;28;20033;-64
2022/01/30 01:46:32;;;;;;;20.08;5.13;;;6.40;99.90;;;;;;5053423;28;20041;-64
2022/01/30 01:48:58;;;;;;;27.73;6.38;;;6.30;99.90;;;;;;5053729;28;20048;-64
2022/01/30 01:51:26;;;;;;;25.77;5.03;;;6.40;99.90;;;;;;5035862;28;20036;-66
2022/01/30 01:53:56;;;;;;;20.73;4.85;;;6.40;99.90;;;;;;5053299;28;20044;-65
2022/01/30 01:56:22;;;;;;;30.92;6.78;;;6.30;99.90;;;;;;5053253;28;20040;-65
2022/01/30 01:58:48;;;;;;;32.47;8.20;;;6.30;99.90;;;;;;5053375;28;20041;-65
2022/01/30 02:01:14;;;;;;;24.92;5.10;;;6.30;99.90;;;;;;5053536;28;20462;-65
2022/01/30 02:03:40;;;;;;;21.67;4.50;;;6.30;99.90;;;;;;5053152;28;20087;-65
2022/01/30 02:06:11;;;;;;;24.42;4.13;;;6.40;99.90;;;;;;5052988;28;20481;-65
2022/01/30 02:08:54;;;;;;;20.25;3.78;;;6.30;99.90;;;;;;5053247;28;20044;-65
2022/01/30 02:11:42;;;;;;;21.13;3.63;;;6.30;99.90;;;;;;5053400;28;20413;-65
2022/01/30 02:27:26;;;;;;;26.38;3.80;;;6.30;99.90;;;;;;5052621;28;20490;-65
2022/01/30 02:29:52;;;;;;;20.02;3.83;;;6.30;99.90;;;;;;5035082;28;20053;-65
2022/01/30 02:32:18;;;;;;;21.10;3.75;;;6.30;99.90;;;;;;5052580;28;20051;-65
2022/01/30 02:34:44;;;;;;;19.17;3.22;;;6.20;99.90;;;;;;5052717;28;20051;-65
2022/01/30 02:37:12;;;;;;;24.10;4.25;;;6.20;99.90;;;;;;5034749;28;20036;-65
2022/01/30 02:39:37;;;;;;;21.02;3.47;;;6.20;99.90;;;;;;5052586;28;20041;-65
2022/01/30 02:42:03;;;;;;;26.48;3.67;;;6.30;99.90;;;;;;5052662;28;20029;-65
2022/01/30 02:44:49;;;;;;;24.52;4.60;;;6.30;99.90;;;;;;5052480;28;20048;-65
2022/01/30 02:47:25;;;;;;;25.13;4.32;;;6.30;99.90;;;;;;5052347;28;20045;-65
2022/01/30 02:50:17;;;;;;;17.73;3.80;;;6.40;99.90;;;;;;5052522;28;20049;-65
2022/01/30 02:52:40;;;;;;;19.13;3.97;;;6.30;99.90;;;;;;5051728;28;20048;-65
2022/01/30 02:55:08;;;;;;;32.55;4.22;;;6.40;99.90;;;;;;5052542;28;20049;-65
2022/01/30 02:57:33;;;;;;;21.45;3.72;;;6.40;99.90;;;;;;5052646;28;20106;-65
2022/01/30 02:59:59;;;;;;;28.30;5.00;;;6.40;99.90;;;;;;5052527;28;20033;-65
2022/01/30 03:02:24;;;;;;;28.58;4.10;;;6.40;99.90;;;;;;5052063;28;20489;-65
2022/01/30 03:04:50;;;;;;;21.05;4.20;;;6.40;99.90;;;;;;5052210;28;20121;-65
2022/01/30 03:07:16;;;;;;;19.38;4.13;;;6.40;99.90;;;;;;5051972;28;20055;-65
2022/01/30 03:09:41;;;;;;;21.00;4.90;;;6.40;99.90;;;;;;5052336;28;20486;-65
2022/01/30 03:12:07;;;;;;;27.50;6.22;;;6.40;99.90;;;;;;5052045;28;20090;-65
2022/01/30 03:14:33;;;;;;;22.73;4.43;;;6.40;99.90;;;;;;5052189;28;20063;-65
2022/01/30 03:17:00;;;;;;;41.80;5.70;;;6.40;99.90;;;;;;5034013;28;20033;-65
2022/01/30 03:19:25;;;;;;;20.95;3.80;;;6.40;99.90;;;;;;5052101;28;20037;-65
2022/01/30 03:21:51;;;;;;;27.92;4.18;;;6.40;99.90;;;;;;5051473;28;20033;-65
2022/01/30 03:24:17;;;;;;;36.47;5.38;;;6.40;99.90;;;;;;5033982;28;20045;-65
2022/01/30 03:26:42;;;;;;;28.92;4.13;;;6.40;99.90;;;;;;5051340;28;20044;-65
2022/01/30 03:29:09;;;;;;;18.45;3.38;;;6.40;99.90;;;;;;5052909;28;20413;-65
2022/01/30 03:31:36;;;;;;;17.50;3.53;;;6.40;99.90;;;;;;5054041;28;20040;-65
2022/01/30 03:34:03;;;;;;;24.40;4.18;;;6.40;99.90;;;;;;5052374;28;20500;-65
2022/01/30 03:36:29;;;;;;;22.17;3.88;;;6.40;99.90;;;;;;5051556;28;20068;-65
2022/01/30 03:38:55;;;;;;;18.00;3.90;;;6.40;99.90;;;;;;5051907;28;20558;-65
2022/01/30 03:41:20;;;;;;;22.20;3.85;;;6.40;99.90;;;;;;5051822;28;20481;-65
2022/01/30 03:43:46;;;;;;;19.02;3.35;;;6.30;99.90;;;;;;5051450;28;20102;-65
2022/01/30 03:46:12;;;;;;;27.08;4.45;;;6.30;99.90;;;;;;5051479;28;20036;-66
2022/01/30 03:48:37;;;;;;;22.27;3.35;;;6.40;99.90;;;;;;5051576;28;20410;-65
2022/01/30 03:51:03;;;;;;;32.67;5.60;;;6.30;99.90;;;;;;5033607;28;20037;-65
2022/01/30 03:53:31;;;;;;;26.10;3.85;;;6.30;99.90;;;;;;5051429;28;20041;-66
2022/01/30 03:55:57;;;;;;;26.13;4.40;;;6.30;99.90;;;;;;5051512;28;20048;-66
2022/01/30 03:58:22;;;;;;;25.83;3.55;;;6.30;99.90;;;;;;5051452;28;20144;-66
2022/01/30 04:00:48;;;;;;;27.17;3.85;;;6.30;99.90;;;;;;5051411;28;20086;-66
2022/01/30 04:03:13;;;;;;;25.77;4.28;;;6.30;99.90;;;;;;5051258;28;20055;-66
2022/01/30 04:05:39;;;;;;;30.63;4.90;;;6.30;99.90;;;;;;5051352;28;20112;-66
2022/01/30 04:08:05;;;;;;;29.30;4.95;;;6.30;99.90;;;;;;5052150;28;20453;-66
2022/01/30 04:10:33;;;;;;;36.08;5.72;;;6.20;99.90;;;;;;5052068;28;20037;-66
2022/01/30 04:12:58;;;;;;;34.58;4.47;;;6.30;99.90;;;;;;5051411;28;20041;-66
2022/01/30 04:15:24;;;;;;;35.35;5.10;;;6.20;99.90;;;;;;5051447;28;20044;-65
2022/01/30 04:17:50;;;;;;;29.42;5.80;;;6.30;99.90;;;;;;5051444;28;20119;-65
2022/01/30 04:20:16;;;;;;;28.90;4.60;;;6.30;99.90;;;;;;5051169;28;20481;-65
2022/01/30 04:22:42;;;;;;;33.75;5.00;;;6.30;99.90;;;;;;5051139;28;20407;-65
2022/01/30 04:25:07;;;;;;;40.20;5.68;;;6.30;99.90;;;;;;5051386;28;20077;-66
2022/01/30 04:27:33;;;;;;;37.45;4.88;;;6.30;99.90;;;;;;5051150;28;20051;-65
2022/01/30 04:29:59;;;;;;;31.92;4.78;;;6.30;99.90;;;;;;5051335;28;20045;-65
2022/01/30 04:32:26;;;;;;;39.00;5.93;;;6.40;99.90;;;;;;5051094;28;20041;-66
2022/01/30 04:34:57;;;;;;;27.77;5.97;;;6.30;99.90;;;;;;5051097;28;20466;-64
2022/01/30 04:37:41;;;;;;;36.65;5.00;;;6.30;99.90;;;;;;5052678;28;20041;-65
2022/01/30 04:52:03;;;;;;;27.45;4.30;;;6.30;99.90;;;;;;5055046;28;20104;-65
2022/01/30 04:54:21;;;;;;;31.30;5.22;;;6.30;99.90;;;;;;5054372;28;20045;-65
2022/01/30 05:09:26;;;;;;;28.20;5.40;;;5.90;99.90;;;;;;5054418;28;20045;-66
2022/01/30 05:11:53;;;;;;;26.55;4.55;;;5.90;99.90;;;;;;5053970;28;20492;-66
2022/01/30 05:14:22;;;;;;;25.00;4.80;;;5.90;99.90;;;;;;5053841;28;20408;-66
2022/01/30 05:16:48;;;;;;;34.72;4.65;;;5.80;99.90;;;;;;5054382;28;20029;-66
2022/01/30 05:19:14;;;;;;;36.08;6.22;;;5.80;99.90;;;;;;5054556;28;20040;-66
2022/01/30 05:21:40;;;;;;;31.50;4.75;;;5.80;99.90;;;;;;5036214;28;20033;-66
2022/01/30 05:24:06;;;;;;;32.28;5.38;;;5.80;99.90;;;;;;5054022;28;20123;-66
2022/01/30 05:26:32;;;;;;;32.83;5.03;;;5.80;99.90;;;;;;5053840;28;20485;-67
2022/01/30 05:28:58;;;;;;;40.42;7.15;;;5.80;99.90;;;;;;5053732;28;20501;-67
2022/01/30 05:31:24;;;;;;;39.40;7.88;;;5.70;99.90;;;;;;5054004;28;20080;-66
2022/01/30 05:33:50;;;;;;;45.15;6.05;;;5.80;99.90;;;;;;5053801;28;20120;-66
2022/01/30 05:36:16;;;;;;;50.22;5.95;;;5.70;99.90;;;;;;5053579;28;20095;-66
2022/01/30 05:38:42;;;;;;;37.25;6.50;;;5.70;99.90;;;;;;5053801;28;20493;-66
2022/01/30 05:41:08;;;;;;;51.78;6.68;;;5.70;99.90;;;;;;5053699;28;20041;-66
2022/01/30 05:43:34;;;;;;;38.53;5.68;;;5.80;99.90;;;;;;5053393;28;20033;-66
2022/01/30 05:46:15;;;;;;;52.20;6.60;;;5.80;99.90;;;;;;5053600;28;20131;-67
2022/01/30 05:48:41;;;;;;;54.03;7.18;;;5.90;99.90;;;;;;5053243;28;20488;-67
2022/01/30 05:51:07;;;;;;;33.78;7.15;;;5.90;99.90;;;;;;5053628;28;20504;-66
2022/01/30 05:53:32;;;;;;;49.00;7.47;;;5.90;99.90;;;;;;5053458;28;20037;-66
2022/01/30 05:55:58;;;;;;;38.63;6.32;;;5.90;99.90;;;;;;5053518;28;20091;-67
2022/01/30 05:58:24;;;;;;;36.67;7.07;;;6.00;99.90;;;;;;5059841;28;20452;-66
2022/01/30 06:00:49;;;;;;;32.33;6.10;;;6.00;99.90;;;;;;5060297;28;20592;-66
2022/01/30 06:03:15;;;;;;;26.60;4.88;;;6.10;99.90;;;;;;5053352;28;20055;-66
2022/01/30 06:05:41;;;;;;;31.00;7.60;;;6.00;99.90;;;;;;5053309;28;20044;-66
2022/01/30 06:08:13;;;;;;;34.97;6.13;;;6.00;99.90;;;;;;5053236;28;20040;-66
2022/01/30 06:10:39;;;;;;;47.40;6.57;;;6.00;99.90;;;;;;5053306;28;20045;-65
2022/01/30 06:13:05;;;;;;;41.85;6.60;;;5.90;99.90;;;;;;5052733;28;20041;-65
2022/01/30 06:15:30;;;;;;;34.70;5.93;;;5.90;99.90;;;;;;5053274;28;20037;-65
2022/01/30 06:17:56;;;;;;;38.70;6.05;;;5.80;99.90;;;;;;5053131;28;20040;-65
2022/01/30 06:20:21;;;;;;;45.95;7.72;;;5.80;99.90;;;;;;5053075;28;20040;-66
2022/01/30 06:22:47;;;;;;;46.70;6.10;;;5.70;99.90;;;;;;5052581;28;20041;-65
2022/01/30 06:25:13;;;;;;;50.67;6.10;;;5.80;99.90;;;;;;5052864;28;20041;-66
2022/01/30 06:27:39;;;;;;;44.85;6.38;;;5.70;99.90;;;;;;5052876;28;20044;-66
2022/01/30 06:30:06;;;;;;;44.38;6.30;;;5.70;99.90;;;;;;5052954;28;20041;-66
2022/01/30 06:32:32;;;;;;;38.55;6.40;;;5.60;99.90;;;;;;5052565;28;20092;-66
2022/01/30 06:34:57;;;;;;;36.42;7.00;;;5.50;99.90;;;;;;5052648;28;20531;-66
2022/01/30 06:37:23;;;;;;;51.88;8.43;;;5.60;99.90;;;;;;5052620;28;20033;-66
2022/01/30 06:39:49;;;;;;;38.58;5.50;;;5.60;99.90;;;;;;5052569;28;20036;-66
2022/01/30 06:42:15;;;;;;;44.65;7.20;;;5.50;99.90;;;;;;5052547;28;20036;-66
2022/01/30 06:44:43;;;;;;;41.05;6.38;;;5.50;99.90;;;;;;5052615;28;20051;-66
2022/01/30 06:47:09;;;;;;;40.95;7.40;;;5.60;99.90;;;;;;5052429;28;20040;-66
2022/01/30 06:49:34;;;;;;;44.13;6.43;;;5.60;99.90;;;;;;5052437;28;20033;-66
2022/01/30 06:52:00;;;;;;;40.13;6.25;;;5.60;99.90;;;;;;5034238;28;20041;-66
2022/01/30 06:54:25;;;;;;;39.75;6.43;;;5.50;99.90;;;;;;5034251;28;20094;-66
2022/01/30 06:56:51;;;;;;;40.88;6.78;;;5.50;99.90;;;;;;5052306;28;20037;-66
2022/01/30 06:59:16;;;;;;;47.45;8.68;;;5.60;99.90;;;;;;5034753;28;20043;-66
2022/01/30 07:01:42;;;;;;;43.78;6.55;;;5.60;99.90;;;;;;5051322;28;20067;-67
2022/01/30 07:04:08;;;;;;;47.72;7.78;;;5.40;99.90;;;;;;5052265;28;20029;-66
2022/01/30 07:06:33;;;;;;;37.17;5.55;;;5.60;99.90;;;;;;5052074;28;20520;-66
2022/01/30 07:08:59;;;;;;;44.53;8.68;;;5.50;99.90;;;;;;5052107;28;20445;-66
2022/01/30 07:11:24;;;;;;;35.50;7.07;;;5.60;99.90;;;;;;5052848;28;20040;-66
2022/01/30 07:13:50;;;;;;;48.35;7.63;;;5.50;99.90;;;;;;5054736;28;20033;-66
2022/01/30 07:16:15;;;;;;;42.22;7.03;;;5.60;99.90;;;;;;5052501;28;20051;-66
2022/01/30 07:18:42;;;;;;;39.63;5.35;;;5.60;99.90;;;;;;5051776;28;20029;-66
2022/01/30 07:21:09;;;;;;;33.80;6.57;;;5.60;99.90;;;;;;5049406;28;20548;-66
2022/01/30 07:23:36;;;;;;;45.85;10.65;;;5.70;99.90;;;;;;5051051;28;20489;-66
2022/01/30 07:26:02;;;;;;;45.67;7.25;;;5.70;99.90;;;;;;5051470;28;20118;-65
2022/01/30 07:28:28;;;;;;;39.42;6.80;;;5.70;99.90;;;;;;5051312;28;20466;-66
2022/01/30 07:30:53;;;;;;;41.38;6.63;;;5.70;99.90;;;;;;5051324;28;20514;-65
2022/01/30 07:33:19;;;;;;;38.35;6.30;;;5.70;99.90;;;;;;5051301;28;20033;-66
2022/01/30 07:35:44;;;;;;;47.28;7.05;;;5.70;99.90;;;;;;5033159;28;20084;-66
2022/01/30 07:38:10;;;;;;;44.03;5.90;;;5.70;99.90;;;;;;5051497;28;20474;-67
2022/01/30 07:40:38;;;;;;;38.10;6.13;;;5.70;99.90;;;;;;5051882;28;20041;-67
2022/01/30 07:43:03;;;;;;;34.97;6.40;;;5.70;99.90;;;;;;5050338;28;20029;-66
2022/01/30 07:45:29;;;;;;;39.25;6.93;;;5.80;99.90;;;;;;5051341;28;20505;-65
2022/01/30 07:47:54;;;;;;;36.72;6.38;;;5.70;99.90;;;;;;5050257;28;20123;-66
2022/01/30 07:50:20;;;;;;;45.63;7.57;;;5.70;99.90;;;;;;5051095;28;20481;-65
2022/01/30 07:52:46;;;;;;;46.90;6.07;;;5.70;99.90;;;;;;5033398;28;20041;-65
2022/01/30 07:55:12;;;;;;;35.17;6.50;;;5.70;99.90;;;;;;5051541;28;20041;-65
2022/01/30 07:57:37;;;;;;;45.33;8.13;;;5.70;99.90;;;;;;5053650;28;20111;-65
2022/01/30 08:00:04;;;;;;;38.88;7.57;;;5.70;99.90;;;;;;5051158;28;20040;-65
2022/01/30 08:02:30;;;;;;;40.60;7.50;;;5.80;99.90;;;;;;5065736;28;20115;-65
2022/01/30 08:04:55;;;;;;;41.47;6.53;;;5.90;99.90;;;;;;5071632;28;20075;-66
2022/01/30 08:07:21;;;;;;;41.45;6.13;;;5.90;99.90;;;;;;5071450;28;20048;-65
2022/01/30 08:09:47;;;;;;;46.90;7.70;;;5.80;99.90;;;;;;5071713;28;20610;-65
2022/01/30 08:12:12;;;;;;;49.63;7.55;;;5.80;99.90;;;;;;5072710;28;20405;-65
2022/01/30 08:14:38;;;;;;;51.78;7.78;;;5.90;99.90;;;;;;5075613;28;20045;-65
2022/01/30 08:17:04;;;;;;;39.72;7.88;;;5.80;99.90;;;;;;5075513;28;20041;-65
2022/01/30 08:19:29;;;;;;;42.58;7.65;;;5.80;99.90;;;;;;5075440;28;20036;-65
2022/01/30 08:21:57;;;;;;;41.88;6.35;;;5.90;99.90;;;;;;5057286;28;20072;-65
2022/01/30 08:24:24;;;;;;;48.60;7.38;;;6.00;99.90;;;;;;5075857;28;20083;-65
2022/01/30 08:26:50;;;;;;;40.15;6.80;;;5.90;99.90;;;;;;5077237;28;20044;-65
2022/01/30 08:29:16;;;;;;;33.55;7.10;;;5.90;99.90;;;;;;5075706;28;20040;-65
2022/01/30 08:31:42;;;;;;;37.25;7.75;;;5.90;99.90;;;;;;5074995;28;20041;-65
2022/01/30 08:34:07;;;;;;;53.38;9.27;;;5.90;99.90;;;;;;5075106;28;20037;-65
2022/01/30 08:36:33;;;;;;;45.10;8.98;;;5.90;99.90;;;;;;5075150;28;20040;-65
2022/01/30 08:38:59;;;;;;;44.25;7.53;;;5.90;99.90;;;;;;5074961;28;20431;-65
2022/01/30 08:41:24;;;;;;;35.97;7.60;;;5.90;99.90;;;;;;5074911;28;20037;-65
2022/01/30 08:43:50;;;;;;;39.75;6.75;;;5.90;99.90;;;;;;5074641;28;20036;-65
2022/01/30 08:46:15;;;;;;;41.30;6.68;;;5.80;99.90;;;;;;5074696;28;20048;-66
2022/01/30 08:48:41;;;;;;;49.95;7.32;;;5.90;99.90;;;;;;5074668;28;20040;-65
2022/01/30 08:51:07;;;;;;;42.58;7.47;;;5.90;99.90;;;;;;5071805;28;20041;-65
2022/01/30 08:53:32;;;;;;;42.33;6.97;;;6.00;99.90;;;;;;5062888;28;20099;-65
2022/01/30 08:55:58;;;;;;;38.58;6.88;;;6.00;99.90;;;;;;5074849;28;20043;-65
2022/01/30 08:58:24;;;;;;;40.08;7.43;;;6.00;99.90;;;;;;5074562;28;20040;-65
2022/01/30 09:00:49;;;;;;;29.33;6.20;;;6.00;99.90;;;;;;5074711;28;20072;-65
2022/01/30 09:03:15;;;;;;;47.78;6.75;;;6.30;99.90;;;;;;5074166;28;20440;-66
2022/01/30 09:05:40;;;;;;;46.30;7.00;;;6.20;99.90;;;;;;5074575;28;20036;-65
2022/01/30 09:08:07;;;;;;;35.88;5.85;;;6.10;99.90;;;;;;5074294;28;20048;-65
2022/01/30 09:10:37;;;;;;;37.30;6.40;;;6.10;99.90;;;;;;5074383;28;20067;-65
2022/01/30 09:13:04;;;;;;;48.55;6.97;;;6.10;99.90;;;;;;5074231;28;20436;-65
2022/01/30 09:15:30;;;;;;;49.05;7.18;;;6.20;99.90;;;;;;5074235;28;20088;-66
2022/01/30 09:17:57;;;;;;;45.00;6.13;;;6.20;99.90;;;;;;5074259;28;20071;-66
2022/01/30 09:20:23;;;;;;;44.22;6.00;;;6.00;99.90;;;;;;5074237;28;20037;-66
2022/01/30 09:22:51;;;;;;;49.30;6.60;;;6.10;99.90;;;;;;5073898;28;20072;-64
2022/01/30 09:25:17;;;;;;;35.13;5.80;;;6.20;99.90;;;;;;5073684;28;20048;-64
2022/01/30 09:27:43;;;;;;;58.22;7.00;;;6.10;99.90;;;;;;5073889;28;20496;-64
2022/01/30 09:30:09;;;;;;;35.55;5.95;;;6.20;99.90;;;;;;5055738;28;20081;-65
2022/01/30 09:32:35;;;;;;;45.88;6.88;;;6.20;99.90;;;;;;5074000;28;20393;-65
2022/01/30 09:35:01;;;;;;;38.13;6.00;;;6.30;99.90;;;;;;5077017;28;20037;-64
2022/01/30 09:37:26;;;;;;;43.50;6.82;;;6.30;99.90;;;;;;5059374;28;20455;-65
2022/01/30 09:39:52;;;;;;;37.22;7.38;;;6.30;99.90;;;;;;5075354;28;20037;-66
2022/01/30 09:42:17;;;;;;;38.70;7.88;;;6.30;99.90;;;;;;5076253;28;20511;-66
2022/01/30 09:44:43;;;;;;;32.25;6.07;;;6.30;99.90;;;;;;5074940;28;20036;-66
2022/01/30 09:47:14;;;;;;;40.22;6.38;;;6.40;99.90;;;;;;5073890;28;20405;-66
2022/01/30 09:49:48;;;;;;;45.20;6.43;;;6.40;99.90;;;;;;5074058;28;20074;-66
2022/01/30 09:52:13;;;;;;;37.53;6.40;;;6.40;99.90;;;;;;5073531;28;20040;-66
2022/01/30 09:54:39;;;;;;;44.78;6.93;;;6.40;99.90;;;;;;5073910;28;20093;-66
2022/01/30 09:57:05;;;;;;;49.40;7.05;;;6.40;99.90;;;;;;5073646;28;20040;-66
2022/01/30 09:59:30;;;;;;;48.90;6.78;;;6.50;99.90;;;;;;5073233;28;20112;-66
2022/01/30 10:01:56;;;;;;;35.55;6.72;;;6.60;99.90;;;;;;5073216;28;20040;-65
2022/01/30 10:04:21;;;;;;;63.58;7.60;;;6.60;99.90;;;;;;5073738;28;20077;-64
2022/01/30 10:06:59;;;;;;;38.85;5.72;;;6.60;99.90;;;;;;5073487;28;20032;-65
2022/01/30 10:09:28;;;;;;;33.22;5.43;;;6.60;99.90;;;;;;5073661;28;20169;-65
2022/01/30 10:12:09;;;;;;;42.42;7.50;;;6.50;99.90;;;;;;5072909;28;20059;-65
2022/01/30 10:14:46;;;;;;;36.70;6.13;;;6.60;99.90;;;;;;5073308;28;20041;-65
2022/01/30 10:17:32;;;;;;;45.70;7.90;;;6.60;99.90;;;;;;5073116;28;20047;-66
2022/01/30 10:20:10;;;;;;;49.13;7.13;;;6.70;99.90;;;;;;5073271;28;20048;-66
2022/01/30 10:22:51;;;;;;;34.95;5.80;;;6.70;99.90;;;;;;5072858;28;20567;-65
2022/01/30 10:25:25;;;;;;;50.45;7.07;;;6.70;99.90;;;;;;5072921;28;20570;-66
2022/01/30 10:28:11;;;;;;;43.47;8.35;;;6.60;99.90;;;;;;5072243;28;20090;-66
2022/01/30 10:30:46;;;;;;;40.13;6.50;;;6.60;99.90;;;;;;5072896;28;20148;-66
2022/01/30 10:33:13;;;;;;;42.08;6.43;;;6.60;99.90;;;;;;5054763;28;20032;-66
2022/01/30 10:35:56;;;;;;;35.05;6.78;;;6.70;99.90;;;;;;5072641;28;20119;-66
2022/01/30 10:38:32;;;;;;;43.85;5.55;;;6.70;99.90;;;;;;5072594;28;20044;-66
2022/01/30 10:41:11;;;;;;;44.80;7.68;;;6.70;99.90;;;;;;5072925;28;20116;-65
2022/01/30 10:43:56;;;;;;;33.42;7.20;;;6.70;99.90;;;;;;5072424;28;20037;-65
2022/01/30 10:46:25;;;;;;;39.00;6.97;;;6.60;99.90;;;;;;5072319;28;20086;-65
2022/01/30 10:49:08;;;;;;;45.88;7.40;;;6.70;99.90;;;;;;5072749;28;20132;-65
2022/01/30 10:51:34;;;;;;;42.15;7.20;;;6.70;99.90;;;;;;5072443;28;20045;-65
2022/01/30 10:54:11;;;;;;;32.45;6.68;;;6.80;99.90;;;;;;5071331;28;20044;-65
2022/01/30 10:56:38;;;;;;;45.10;6.75;;;6.80;99.90;;;;;;5073023;28;20044;-65
2022/01/30 10:59:07;;;;;;;33.13;6.82;;;6.70;99.90;;;;;;5074699;28;20068;-65
2022/01/30 11:01:33;;;;;;;48.95;7.15;;;6.80;99.90;;;;;;5077130;28;20048;-66
2022/01/30 11:04:00;;;;;;;33.05;7.30;;;6.80;99.90;;;;;;5077081;28;20032;-66
2022/01/30 11:06:30;;;;;;;49.58;7.25;;;6.90;99.90;;;;;;5072232;28;20117;-65
2022/01/30 11:09:11;;;;;;;48.08;9.23;;;6.80;99.90;;;;;;5072289;28;20072;-66
2022/01/30 11:11:44;;;;;;;37.67;6.90;;;6.90;99.90;;;;;;5071975;28;20040;-66
2022/01/30 11:19:24;;;;;;;43.70;7.05;;;7.10;99.90;;;;;;5072140;28;20048;-66
2022/01/30 11:21:51;;;;;;;37.83;5.97;;;7.10;99.90;;;;;;5071810;28;20131;-67
2022/01/30 11:24:19;;;;;;;55.83;7.38;;;7.20;99.90;;;;;;5071990;28;20036;-66
2022/01/30 11:26:46;;;;;;;47.80;7.25;;;7.20;99.90;;;;;;5053927;28;20119;-64
2022/01/30 11:29:14;;;;;;;53.53;7.40;;;7.20;99.90;;;;;;5071401;28;20048;-64
2022/01/30 11:31:41;;;;;;;52.95;7.55;;;7.20;99.90;;;;;;5071903;28;20052;-64
2022/01/30 11:34:07;;;;;;;39.50;6.72;;;7.20;99.90;;;;;;5071715;28;20036;-65
2022/01/30 11:36:37;;;;;;;38.72;6.80;;;7.20;99.90;;;;;;5072041;28;20029;-65
2022/01/30 11:39:04;;;;;;;39.30;6.70;;;7.20;99.90;;;;;;5053854;28;20047;-65
2022/01/30 11:41:31;;;;;;;38.38;6.68;;;7.20;99.90;;;;;;5071797;28;20044;-66
2022/01/30 11:44:19;;;;;;;37.00;7.18;;;7.20;99.90;;;;;;5071686;28;20045;-64
2022/01/30 11:46:44;;;;;;;39.60;8.02;;;7.10;99.90;;;;;;5053351;28;20040;-65
2022/01/30 11:49:14;;;;;;;37.13;7.15;;;7.20;99.90;;;;;;5071899;28;20527;-65
2022/01/30 11:51:50;;;;;;;40.53;7.28;;;7.20;99.90;;;;;;5071489;28;20493;-65
2022/01/30 11:54:34;;;;;;;43.53;8.00;;;7.30;99.90;;;;;;5071843;28;20045;-65
2022/01/30 11:56:59;;;;;;;37.85;6.25;;;7.30;99.90;;;;;;5053670;28;20041;-64
2022/01/30 11:59:40;;;;;;;30.42;5.50;;;7.20;99.90;;;;;;5071878;28;20059;-65
2022/01/30 12:02:28;;;;;;;35.42;5.22;;;7.30;96.70;;;;;;5071393;28;20048;-65
2022/01/30 12:05:04;;;;;;;35.60;5.53;;;7.20;95.40;;;;;;5071585;28;20478;-65
2022/01/30 12:07:45;;;;;;;36.83;5.88;;;7.20;98.80;;;;;;5053454;28;20080;-65
2022/01/30 12:10:31;;;;;;;32.83;6.07;;;7.20;99.90;;;;;;5071807;28;20043;-65
2022/01/30 12:12:59;;;;;;;42.30;5.88;;;7.10;81.60;;;;;;5071610;28;20493;-65
2022/01/30 12:15:37;;;;;;;35.78;6.88;;;7.00;99.50;;;;;;5071498;28;20119;-65
2022/01/30 12:18:07;;;;;;;21.02;5.47;;;7.10;90.30;;;;;;5072066;28;20037;-65
2022/01/30 12:20:59;;;;;;;41.05;6.93;;;7.10;98.40;;;;;;5054014;28;20111;-65
2022/01/30 12:23:26;;;;;;;32.75;5.70;;;7.10;98.90;;;;;;5071890;28;20041;-65
2022/01/30 12:26:06;;;;;;;36.47;6.80;;;7.10;96.70;;;;;;5074556;28;20054;-65
2022/01/30 12:28:54;;;;;;;37.75;6.38;;;7.00;99.70;;;;;;5072150;28;20473;-66
2022/01/30 12:31:34;;;;;;;36.13;6.00;;;7.00;92.80;;;;;;5053770;28;20037;-66
2022/01/30 12:34:15;;;;;;;24.85;5.10;;;7.00;95.00;;;;;;5071311;28;20044;-66
2022/01/30 12:36:52;;;;;;;23.50;5.05;;;7.00;98.20;;;;;;5071262;28;20074;-65
2022/01/30 12:39:22;;;;;;;36.40;6.78;;;7.00;92.80;;;;;;5071842;28;20052;-65
2022/01/30 12:41:50;;;;;;;46.28;6.38;;;7.10;93.60;;;;;;5071124;28;20037;-64
2022/01/30 12:44:21;;;;;;;37.63;6.50;;;7.10;97.20;;;;;;5071284;28;20033;-65
2022/01/30 12:46:53;;;;;;;37.95;6.88;;;7.10;92.80;;;;;;5071048;28;20539;-65
2022/01/30 12:49:25;;;;;;;40.95;5.68;;;7.10;84.20;;;;;;5071336;28;20041;-65
2022/01/30 12:51:53;;;;;;;40.42;5.35;;;7.20;90.40;;;;;;5052839;28;20045;-64
2022/01/30 12:54:24;;;;;;;23.60;4.88;;;7.10;94.00;;;;;;5071198;28;20040;-64
2022/01/30 12:56:57;;;;;;;26.80;5.10;;;7.20;97.00;;;;;;5071076;28;20562;-65
2022/01/30 12:59:26;;;;;;;31.30;4.60;;;7.30;90.20;;;;;;5090182;22;20499;-66
2022/01/30 13:02:02;;;;;;;29.27;5.03;;;7.20;90.30;;;;;;5053466;28;20461;-65
2022/01/30 13:04:27;;;;;;;36.78;5.45;;;7.20;94.30;;;;;;5054156;28;20038;-66
2022/01/30 13:06:53;;;;;;;35.85;5.30;;;7.20;95.30;;;;;;5053422;28;20033;-66
2022/01/30 13:09:22;;;;;;;30.95;4.80;;;7.20;99.30;;;;;;5035269;28;20551;-66
2022/01/30 13:11:48;;;;;;;36.70;5.00;;;7.20;84.80;;;;;;5053310;28;20084;-66
2022/01/30 13:14:14;;;;;;;36.10;6.07;;;7.20;99.30;;;;;;5052855;28;20044;-66
2022/01/30 13:16:48;;;;;;;38.45;5.35;;;7.20;95.00;;;;;;5053656;28;20033;-66
2022/01/30 13:19:32;;;;;;;34.17;5.53;;;7.30;93.40;;;;;;5035108;28;20121;-66
2022/01/30 13:21:59;;;;;;;26.35;6.35;;;7.30;96.90;;;;;;5035042;28;20037;-66
2022/01/30 13:24:26;;;;;;;28.80;5.70;;;7.30;87.30;;;;;;5052967;28;20102;-66
2022/01/30 13:26:57;;;;;;;35.05;5.53;;;7.40;95.00;;;;;;5053207;28;20059;-66
2022/01/30 13:29:23;;;;;;;26.77;4.88;;;7.30;93.80;;;;;;5053127;28;20386;-66
2022/01/30 13:31:57;;;;;;;29.27;5.22;;;7.40;93.40;;;;;;5053077;28;20124;-66
2022/01/30 13:34:30;;;;;;;24.40;5.50;;;7.40;94.30;;;;;;5053116;28;20041;-67
2022/01/30 13:37:16;;;;;;;27.17;5.78;;;7.40;91.60;;;;;;5052915;28;20037;-66
2022/01/30 13:47:42;;;;;;;30.65;6.32;;;7.60;93.50;;;;;;5034996;28;20381;-66
2022/01/30 13:50:15;;;;;;;33.35;5.63;;;7.60;98.00;;;;;;5052804;28;20040;-67
2022/01/30 13:52:41;;;;;;;38.70;6.43;;;7.60;95.90;;;;;;5052412;28;20049;-66
2022/01/30 13:55:07;;;;;;;31.92;5.72;;;7.70;99.80;;;;;;5052551;28;20128;-66
2022/01/30 13:57:38;;;;;;;30.20;5.47;;;7.70;91.00;;;;;;5034702;28;20428;-66